createdAt,value
2017-06-14T00:01:29.940Z,15.50
2017-06-14T00:03:57.456Z,15.50
2017-06-14T00:06:25.012Z,15.70
2017-06-14T00:08:52.519Z,15.60
2017-06-14T00:11:20.076Z,15.50
2017-06-14T00:13:47.579Z,15.30
2017-06-14T00:16:15.092Z,15.20
2017-06-14T00:18:42.652Z,15.00
2017-06-14T00:21:10.162Z,15.00
2017-06-14T00:23:37.667Z,15.00
2017-06-14T00:26:05.231Z,15.00
2017-06-14T00:28:32.756Z,15.10
2017-06-14T00:31:00.279Z,15.10
2017-06-14T00:33:27.846Z,15.00
2017-06-14T00:35:55.358Z,15.10
2017-06-14T00:38:23.572Z,15.20
2017-06-14T00:40:51.165Z,15.50
2017-06-14T00:43:18.673Z,15.60
2017-06-14T00:45:46.183Z,15.40
2017-06-14T00:48:13.732Z,15.40
2017-06-14T00:50:41.273Z,15.10
2017-06-14T00:53:08.775Z,15.00
2017-06-14T00:55:36.328Z,14.80
2017-06-14T00:58:03.833Z,14.80
2017-06-14T01:00:31.361Z,14.80
2017-06-14T01:02:58.919Z,14.70
2017-06-14T01:05:26.469Z,14.60
2017-06-14T01:07:54.001Z,14.50
2017-06-14T01:10:21.606Z,14.40
2017-06-14T01:12:49.116Z,14.40
2017-06-14T01:15:16.640Z,14.50
2017-06-14T01:17:44.195Z,14.50
2017-06-14T01:20:11.703Z,14.40
2017-06-14T01:22:39.210Z,14.50
2017-06-14T01:25:06.787Z,14.40
2017-06-14T01:27:34.302Z,14.30
2017-06-14T01:30:01.877Z,14.20
2017-06-14T01:32:29.399Z,14.30
2017-06-14T01:34:56.907Z,14.30
2017-06-14T01:37:24.744Z,14.30
2017-06-14T01:39:52.248Z,14.50
2017-06-14T01:42:19.758Z,14.50
2017-06-14T01:44:47.409Z,14.50
2017-06-14T01:47:14.917Z,14.30
2017-06-14T01:49:42.429Z,14.50
2017-06-14T01:52:09.987Z,14.50
2017-06-14T01:54:37.496Z,14.60
2017-06-14T01:57:05.060Z,14.70
2017-06-14T01:59:32.639Z,14.70
2017-06-14T02:02:00.145Z,14.60
2017-06-14T02:04:27.697Z,14.50
2017-06-14T02:06:55.280Z,14.40
2017-06-14T02:09:22.791Z,14.30
2017-06-14T02:11:50.303Z,14.50
2017-06-14T02:14:17.867Z,14.40
2017-06-14T02:16:45.389Z,14.30
2017-06-14T02:19:12.891Z,14.50
2017-06-14T02:21:40.445Z,14.40
2017-06-14T02:24:07.954Z,14.20
2017-06-14T02:26:35.480Z,14.10
2017-06-14T02:29:03.045Z,14.20
2017-06-14T02:31:30.559Z,14.10
2017-06-14T02:33:58.059Z,14.00
2017-06-14T02:36:25.648Z,13.90
2017-06-14T02:38:53.157Z,14.00
2017-06-14T02:41:20.651Z,14.00
2017-06-14T02:43:48.250Z,14.00
2017-06-14T02:46:15.790Z,14.20
2017-06-14T02:48:43.287Z,14.50
2017-06-14T02:51:10.849Z,14.50
2017-06-14T02:53:38.359Z,14.40
2017-06-14T02:56:05.863Z,14.50
2017-06-14T02:58:33.463Z,14.40
2017-06-14T03:01:00.963Z,14.40
2017-06-14T03:03:28.512Z,14.30
2017-06-14T03:05:56.070Z,14.20
2017-06-14T03:08:23.583Z,14.20
2017-06-14T03:10:51.086Z,14.10
2017-06-14T03:13:18.647Z,14.10
2017-06-14T03:15:46.182Z,14.10
2017-06-14T03:18:13.705Z,14.20
2017-06-14T03:20:46.928Z,14.30
2017-06-14T03:23:14.459Z,14.10
2017-06-14T03:25:41.990Z,14.40
2017-06-14T03:28:09.570Z,14.10
2017-06-14T03:30:37.096Z,13.90
2017-06-14T03:33:04.651Z,14.00
2017-06-14T03:35:32.194Z,13.80
2017-06-14T03:40:21.716Z,13.80
2017-06-14T03:42:49.312Z,13.80
2017-06-14T03:45:16.823Z,13.90
2017-06-14T03:47:44.331Z,14.00
2017-06-14T03:50:11.900Z,13.90
2017-06-14T03:52:39.420Z,13.80
2017-06-14T03:55:06.939Z,14.20
2017-06-14T03:57:34.503Z,13.90
2017-06-14T04:00:02.049Z,14.00
2017-06-14T04:02:29.561Z,14.20
2017-06-14T04:04:57.124Z,14.50
2017-06-14T04:07:24.639Z,15.00
2017-06-14T04:09:52.155Z,14.80
2017-06-14T04:12:19.707Z,14.90
2017-06-14T04:14:47.289Z,14.70
2017-06-14T04:17:15.564Z,14.90
2017-06-14T04:19:43.889Z,15.00
2017-06-14T04:22:11.405Z,15.00
2017-06-14T04:24:39.698Z,15.20
2017-06-14T04:27:07.251Z,15.10
2017-06-14T04:29:34.763Z,15.40
2017-06-14T04:32:02.285Z,15.40
2017-06-14T04:34:29.839Z,15.60
2017-06-14T04:36:57.352Z,15.80
2017-06-14T04:39:25.628Z,15.90
2017-06-14T04:41:53.946Z,15.90
2017-06-14T04:44:21.450Z,15.90
2017-06-14T04:46:48.976Z,16.10
2017-06-14T04:49:16.575Z,16.00
2017-06-14T04:51:44.079Z,16.20
2017-06-14T04:54:11.603Z,16.10
2017-06-14T04:56:39.160Z,16.30
2017-06-14T04:59:07.443Z,16.30
2017-06-14T05:01:35.030Z,16.40
2017-06-14T05:04:02.587Z,16.60
2017-06-14T05:06:30.092Z,16.70
2017-06-14T05:08:58.380Z,16.80
2017-06-14T05:11:26.694Z,16.90
2017-06-14T05:13:54.204Z,16.80
2017-06-14T05:16:22.483Z,17.10
2017-06-14T05:18:50.076Z,17.00
2017-06-14T05:21:17.591Z,17.30
2017-06-14T05:23:45.108Z,17.40
2017-06-14T05:26:12.660Z,17.80
2017-06-14T05:28:40.163Z,17.90
2017-06-14T05:31:08.448Z,18.10
2017-06-14T05:33:36.778Z,18.10
2017-06-14T05:36:04.284Z,18.00
2017-06-14T05:38:32.631Z,18.30
2017-06-14T05:41:00.212Z,18.30
2017-06-14T05:43:27.844Z,18.30
2017-06-14T05:45:55.447Z,18.30
2017-06-14T05:48:22.979Z,18.20
2017-06-14T05:50:50.487Z,18.20
2017-06-14T05:53:18.099Z,18.10
2017-06-14T05:55:46.368Z,18.10
2017-06-14T05:58:13.880Z,18.00
2017-06-14T06:00:41.439Z,18.30
2017-06-14T06:03:08.971Z,18.30
2017-06-14T06:05:36.508Z,18.30
2017-06-14T06:08:04.899Z,18.50
2017-06-14T06:10:32.423Z,18.40
2017-06-14T06:12:59.930Z,18.60
2017-06-14T06:15:27.506Z,18.70
2017-06-14T06:17:55.038Z,18.70
2017-06-14T06:20:23.306Z,18.70
2017-06-14T06:22:50.892Z,18.90
2017-06-14T06:25:22.104Z,19.20
2017-06-14T06:27:49.640Z,19.40
2017-06-14T06:30:17.203Z,19.50
2017-06-14T06:32:45.480Z,19.30
2017-06-14T06:35:13.757Z,19.40
2017-06-14T06:37:42.075Z,19.60
2017-06-14T06:40:09.588Z,19.50
2017-06-14T06:42:37.139Z,19.70
2017-06-14T06:45:05.415Z,20.00
2017-06-14T06:47:32.927Z,19.90
2017-06-14T06:50:00.607Z,20.30
2017-06-14T06:52:28.118Z,20.60
2017-06-14T06:54:55.632Z,20.70
2017-06-14T06:57:23.221Z,21.00
2017-06-14T06:59:50.748Z,21.00
2017-06-14T07:02:18.290Z,21.50
2017-06-14T07:04:45.915Z,21.80
2017-06-14T07:07:13.436Z,21.50
2017-06-14T07:09:40.958Z,21.00
2017-06-14T07:12:08.503Z,20.90
2017-06-14T07:14:36.070Z,21.10
2017-06-14T07:17:03.589Z,21.30
2017-06-14T07:19:31.174Z,21.70
2017-06-14T07:21:58.712Z,21.80
2017-06-14T07:24:26.236Z,21.80
2017-06-14T07:26:53.827Z,21.60
2017-06-14T07:29:21.372Z,21.20
2017-06-14T07:31:48.891Z,20.70
2017-06-14T07:34:16.440Z,20.70
2017-06-14T07:36:45.531Z,20.50
2017-06-14T07:39:13.044Z,20.60
2017-06-14T07:41:41.371Z,20.70
2017-06-14T07:44:08.883Z,20.70
2017-06-14T07:46:36.394Z,20.80
2017-06-14T07:49:03.999Z,20.70
2017-06-14T07:51:31.524Z,20.90
2017-06-14T07:53:59.036Z,21.00
2017-06-14T07:56:26.735Z,21.50
2017-06-14T07:58:54.254Z,21.30
2017-06-14T08:01:21.785Z,21.20
2017-06-14T08:03:49.391Z,21.50
2017-06-14T08:06:16.904Z,21.70
2017-06-14T08:08:44.508Z,22.10
2017-06-14T08:11:12.097Z,22.20
2017-06-14T08:13:40.903Z,22.90
2017-06-14T08:16:08.730Z,22.80
2017-06-14T08:18:36.309Z,23.20
2017-06-14T08:21:04.636Z,23.20
2017-06-14T08:23:32.395Z,23.10
2017-06-14T08:25:59.992Z,23.30
2017-06-14T08:28:28.545Z,23.20
2017-06-14T08:30:56.132Z,23.00
2017-06-14T08:33:23.705Z,22.90
2017-06-14T08:35:51.260Z,23.00
2017-06-14T08:38:19.536Z,23.00
2017-06-14T08:40:47.165Z,23.00
2017-06-14T08:43:14.688Z,23.20
2017-06-14T08:45:42.208Z,23.40
2017-06-14T08:48:09.956Z,23.40
2017-06-14T08:50:37.478Z,23.30
2017-06-14T08:53:05.007Z,23.00
2017-06-14T08:55:32.571Z,23.00
2017-06-14T08:58:00.099Z,22.80
2017-06-14T09:00:28.427Z,23.00
2017-06-14T09:02:55.985Z,23.00
2017-06-14T09:05:23.531Z,23.20
2017-06-14T09:07:51.051Z,23.30
2017-06-14T09:10:18.620Z,23.50
2017-06-14T09:12:46.332Z,23.50
2017-06-14T09:15:13.880Z,23.60
2017-06-14T09:17:41.543Z,23.50
2017-06-14T09:20:09.100Z,23.60
2017-06-14T09:22:36.628Z,23.90
2017-06-14T09:25:04.248Z,24.30
2017-06-14T09:27:31.759Z,24.30
2017-06-14T09:29:59.287Z,24.00
2017-06-14T09:32:26.904Z,23.90
2017-06-14T09:34:54.431Z,24.00
2017-06-14T09:37:21.994Z,24.10
2017-06-14T09:39:49.541Z,24.00
2017-06-14T09:42:17.056Z,23.90
2017-06-14T09:44:44.623Z,23.70
2017-06-14T09:47:12.135Z,23.40
2017-06-14T09:49:39.796Z,23.60
2017-06-14T09:52:07.442Z,23.50
2017-06-14T09:54:34.992Z,23.40
2017-06-14T09:57:02.514Z,23.60
2017-06-14T09:59:30.159Z,23.90
2017-06-14T10:01:57.726Z,24.00
2017-06-14T10:04:25.307Z,23.70
2017-06-14T10:06:52.888Z,23.90
2017-06-14T10:09:20.406Z,24.10
2017-06-14T10:11:47.914Z,24.20
2017-06-14T10:14:15.480Z,24.40
2017-06-14T10:16:43.007Z,24.90
2017-06-14T10:19:10.517Z,25.50
2017-06-14T10:21:38.163Z,25.80
2017-06-14T10:24:06.571Z,25.70
2017-06-14T10:26:34.091Z,25.60
2017-06-14T10:29:01.658Z,25.30
2017-06-14T10:31:29.244Z,25.20
2017-06-14T10:33:56.757Z,25.50
2017-06-14T10:36:24.307Z,25.70
2017-06-14T10:38:51.849Z,25.40
2017-06-14T10:41:19.375Z,25.20
2017-06-14T10:43:46.927Z,25.20
2017-06-14T10:46:14.437Z,25.20
2017-06-14T10:48:41.980Z,25.60
2017-06-14T10:51:09.666Z,25.50
2017-06-14T10:53:37.188Z,25.80
2017-06-14T10:56:04.723Z,26.20
2017-06-14T10:58:32.286Z,26.10
2017-06-14T11:00:59.806Z,25.80
2017-06-14T11:03:27.336Z,25.80
2017-06-14T11:05:54.895Z,26.00
2017-06-14T11:08:22.417Z,26.40
2017-06-14T11:10:49.938Z,26.40
2017-06-14T11:13:17.501Z,26.50
2017-06-14T11:15:45.015Z,26.60
2017-06-14T11:18:12.559Z,26.90
2017-06-14T11:20:40.879Z,26.60
2017-06-14T11:23:08.424Z,26.50
2017-06-14T11:25:35.999Z,26.40
2017-06-14T11:28:03.564Z,26.20
2017-06-14T11:30:31.091Z,26.00
2017-06-14T11:32:58.647Z,26.40
2017-06-14T11:35:26.204Z,26.40
2017-06-14T11:37:53.801Z,26.30
2017-06-14T11:40:21.395Z,26.40
2017-06-14T11:42:48.945Z,26.60
2017-06-14T11:45:16.492Z,26.40
2017-06-14T11:47:44.051Z,26.00
2017-06-14T11:50:11.623Z,26.10
2017-06-14T11:52:39.194Z,26.10
2017-06-14T11:55:06.732Z,26.20
2017-06-14T11:57:34.305Z,26.00
2017-06-14T12:00:02.653Z,26.60
2017-06-14T12:02:30.210Z,26.50
2017-06-14T12:04:58.633Z,27.00
2017-06-14T12:07:26.200Z,27.30
2017-06-14T12:09:53.817Z,27.20
2017-06-14T12:12:21.417Z,27.50
2017-06-14T12:14:48.959Z,27.60
2017-06-14T12:17:16.520Z,27.70
2017-06-14T12:19:44.089Z,27.70
2017-06-14T12:22:11.680Z,27.60
2017-06-14T12:24:39.260Z,27.50
2017-06-14T12:27:06.793Z,27.70
2017-06-14T12:29:34.344Z,27.80
2017-06-14T12:32:01.904Z,27.80
2017-06-14T12:34:29.973Z,27.80
2017-06-14T12:36:57.583Z,27.60
2017-06-14T12:39:25.159Z,26.80
2017-06-14T12:41:52.680Z,26.20
2017-06-14T12:44:20.284Z,26.20
2017-06-14T12:46:48.519Z,26.40
2017-06-14T12:49:16.040Z,26.60
2017-06-14T12:51:43.575Z,26.70
2017-06-14T12:54:11.230Z,26.50
2017-06-14T12:56:38.842Z,26.40
2017-06-14T12:59:06.490Z,26.10
2017-06-14T13:01:34.118Z,26.20
2017-06-14T13:04:01.651Z,25.30
2017-06-14T13:06:29.182Z,25.00
2017-06-14T13:08:56.803Z,25.10
2017-06-14T13:11:24.330Z,25.40
2017-06-14T13:13:51.874Z,25.40
2017-06-14T13:16:19.533Z,25.50
2017-06-14T13:18:47.870Z,25.60
2017-06-14T13:21:16.323Z,25.60
2017-06-14T13:23:44.020Z,25.80
2017-06-14T13:26:11.703Z,25.60
2017-06-14T13:28:39.246Z,25.60
2017-06-14T13:31:06.872Z,25.70
2017-06-14T13:33:35.168Z,25.70
2017-06-14T13:36:02.734Z,25.80
2017-06-14T13:38:30.309Z,25.80
2017-06-14T13:40:57.823Z,25.60
2017-06-14T13:43:25.412Z,25.50
2017-06-14T13:45:52.980Z,25.50
2017-06-14T13:48:20.537Z,25.40
2017-06-14T13:50:48.108Z,25.20
2017-06-14T13:53:16.455Z,25.10
2017-06-14T13:55:44.033Z,25.10
2017-06-14T13:58:11.623Z,24.90
2017-06-14T14:00:39.396Z,24.90
2017-06-14T14:03:07.476Z,24.80
2017-06-14T14:05:35.030Z,24.80
2017-06-14T14:08:02.705Z,24.90
2017-06-14T14:10:30.343Z,24.90
2017-06-14T14:12:57.938Z,24.80
2017-06-14T14:15:25.603Z,24.80
2017-06-14T14:17:53.156Z,24.90
2017-06-14T14:20:21.069Z,25.00
2017-06-14T14:22:48.746Z,25.00
2017-06-14T14:25:16.363Z,25.10
2017-06-14T14:27:43.983Z,25.10
2017-06-14T14:30:11.633Z,25.00
2017-06-14T14:32:39.176Z,25.00
2017-06-14T14:35:07.857Z,25.00
2017-06-14T14:37:35.505Z,25.20
2017-06-14T14:40:03.875Z,25.30
2017-06-14T14:42:31.511Z,25.20
2017-06-14T14:45:00.827Z,25.20
2017-06-14T14:47:28.409Z,25.20
2017-06-14T14:49:56.028Z,25.20
2017-06-14T14:52:23.660Z,25.00
2017-06-14T14:54:52.139Z,24.80
2017-06-14T14:57:19.762Z,24.80
2017-06-14T14:59:47.372Z,24.90
2017-06-14T15:02:16.950Z,24.80
2017-06-14T15:04:44.636Z,24.90
2017-06-14T15:07:12.346Z,24.80
2017-06-14T15:09:40.746Z,24.70
2017-06-14T15:12:08.375Z,24.60
2017-06-14T15:14:36.092Z,24.50
2017-06-14T15:17:03.759Z,24.40
2017-06-14T15:19:31.318Z,24.40
2017-06-14T15:21:58.993Z,24.50
2017-06-14T15:24:26.602Z,24.50
2017-06-14T15:26:55.484Z,24.60
2017-06-14T15:29:23.127Z,24.70
2017-06-14T15:31:51.685Z,24.90
2017-06-14T15:34:19.341Z,24.90
2017-06-14T15:36:47.041Z,25.00
2017-06-14T15:39:19.455Z,25.00
2017-06-14T15:41:50.266Z,25.20
2017-06-14T15:44:17.962Z,25.40
2017-06-14T15:46:46.660Z,25.70
2017-06-14T15:49:14.272Z,25.60
2017-06-14T15:51:42.473Z,25.50
2017-06-14T15:54:10.168Z,25.60
2017-06-14T15:56:38.619Z,25.20
2017-06-14T15:59:06.160Z,25.10
2017-06-14T16:01:33.724Z,25.00
2017-06-14T16:04:01.310Z,24.90
2017-06-14T16:06:28.926Z,24.90
2017-06-14T16:08:56.476Z,24.90
2017-06-14T16:11:24.069Z,24.80
2017-06-14T16:13:51.632Z,24.80
2017-06-14T16:16:19.197Z,24.70
2017-06-14T16:18:46.777Z,24.70
2017-06-14T16:21:14.305Z,24.50
2017-06-14T16:23:42.680Z,24.40
2017-06-14T16:26:10.293Z,24.40
2017-06-14T16:28:37.839Z,24.30
2017-06-14T16:31:05.419Z,24.20
2017-06-14T16:33:33.043Z,24.20
2017-06-14T16:36:00.570Z,24.20
2017-06-14T16:38:28.186Z,24.20
2017-06-14T16:40:55.836Z,24.30
2017-06-14T16:43:23.452Z,24.20
2017-06-14T16:45:51.096Z,24.40
2017-06-14T16:48:18.724Z,24.50
2017-06-14T16:50:46.317Z,24.70
2017-06-14T16:53:13.927Z,24.40
2017-06-14T16:55:41.625Z,24.50
2017-06-14T16:58:09.213Z,24.50
2017-06-14T17:00:37.628Z,24.50
2017-06-14T17:03:05.269Z,24.50
2017-06-14T17:05:33.759Z,24.40
2017-06-14T17:08:01.451Z,24.30
2017-06-14T17:10:29.054Z,24.30
2017-06-14T17:12:56.693Z,24.20
2017-06-14T17:15:24.782Z,24.10
2017-06-14T17:17:52.392Z,24.20
2017-06-14T17:20:20.881Z,24.20
2017-06-14T17:22:48.582Z,24.20
2017-06-14T17:25:16.233Z,24.10
2017-06-14T17:27:43.933Z,23.90
2017-06-14T17:30:11.655Z,23.80
2017-06-14T17:32:39.262Z,23.80
2017-06-14T17:35:07.035Z,23.90
2017-06-14T17:37:34.604Z,24.10
2017-06-14T17:40:02.192Z,23.90
2017-06-14T17:42:29.793Z,23.80
2017-06-14T17:44:58.177Z,24.00
2017-06-14T17:47:28.903Z,24.00
2017-06-14T17:50:03.474Z,23.80
2017-06-14T17:52:44.441Z,23.70
2017-06-14T17:55:14.637Z,23.70
2017-06-14T17:57:51.006Z,23.80
2017-06-14T18:00:18.660Z,23.90
2017-06-14T18:02:47.485Z,23.80
2017-06-14T18:05:22.987Z,23.50
2017-06-14T18:07:57.162Z,23.60
2017-06-14T18:10:29.865Z,23.50
2017-06-14T18:21:41.429Z,23.40
2017-06-14T18:31:02.041Z,23.20
2017-06-14T18:33:30.439Z,23.10
2017-06-14T18:35:58.014Z,23.00
2017-06-14T18:38:25.657Z,23.10
2017-06-14T18:40:53.294Z,23.00
2017-06-14T18:43:20.988Z,22.90
2017-06-14T18:45:49.492Z,22.90
2017-06-14T18:48:17.098Z,22.80
2017-06-14T18:50:44.732Z,23.00
2017-06-14T18:53:12.418Z,23.10
2017-06-14T18:55:40.839Z,22.70
2017-06-14T18:58:08.501Z,22.60
2017-06-14T19:00:37.335Z,22.60
2017-06-14T19:03:05.654Z,22.40
2017-06-14T19:05:34.257Z,22.40
2017-06-14T19:08:01.939Z,22.10
2017-06-14T19:10:29.579Z,21.80
2017-06-14T19:12:57.262Z,21.60
2017-06-14T19:15:24.958Z,21.40
2017-06-14T19:17:52.609Z,21.30
2017-06-14T19:20:21.293Z,21.10
2017-06-14T19:22:50.862Z,20.80
2017-06-14T19:25:18.421Z,20.70
2017-06-14T19:27:46.017Z,20.50
2017-06-14T19:30:14.386Z,20.40
2017-06-14T19:32:47.528Z,20.40
2017-06-14T19:35:15.126Z,20.40
2017-06-14T19:37:42.687Z,20.20
2017-06-14T19:40:11.857Z,19.90
2017-06-14T19:42:39.500Z,19.80
2017-06-14T19:45:07.077Z,19.80
2017-06-14T19:47:34.692Z,19.80
2017-06-14T19:50:02.337Z,19.60
2017-06-14T19:52:29.952Z,19.50
2017-06-14T19:54:57.554Z,19.40
2017-06-14T19:57:25.236Z,19.40
2017-06-14T19:59:52.810Z,19.40
2017-06-14T20:02:20.404Z,19.20
2017-06-14T20:04:48.957Z,19.20
2017-06-14T20:07:16.576Z,19.10
2017-06-14T20:09:44.249Z,19.00
2017-06-14T20:12:12.931Z,18.90
2017-06-14T20:14:40.494Z,18.80
2017-06-14T20:17:08.161Z,18.70
2017-06-14T20:19:35.692Z,18.80
2017-06-14T20:22:03.285Z,18.60
2017-06-14T20:24:31.677Z,18.60
2017-06-14T20:26:59.243Z,18.50
2017-06-14T20:29:26.849Z,18.50
2017-06-14T20:31:54.496Z,18.60
2017-06-14T20:34:22.819Z,18.30
2017-06-14T20:36:50.389Z,18.20
2017-06-14T20:39:17.973Z,18.20
2017-06-14T20:41:45.853Z,18.20
2017-06-14T20:44:14.183Z,18.10
2017-06-14T20:46:41.976Z,18.10
2017-06-14T20:49:09.553Z,18.10
2017-06-14T20:51:37.097Z,18.00
2017-06-14T20:54:04.669Z,18.00
2017-06-14T20:56:33.000Z,17.80
2017-06-14T20:59:00.564Z,17.80
2017-06-14T21:01:28.202Z,17.70
2017-06-14T21:03:55.740Z,17.70
2017-06-14T21:06:23.281Z,17.70
2017-06-14T21:09:01.756Z,17.70
2017-06-14T21:11:29.568Z,17.70
2017-06-14T21:13:57.125Z,17.70
2017-06-14T21:16:25.372Z,17.60
2017-06-14T21:18:52.928Z,17.60
2017-06-14T21:21:20.525Z,17.40
2017-06-14T21:23:48.157Z,17.40
2017-06-14T21:26:16.507Z,17.40
2017-06-14T21:28:44.117Z,17.30
2017-06-14T21:31:11.697Z,17.30
2017-06-14T21:33:39.273Z,17.40
2017-06-14T21:36:07.048Z,17.20
2017-06-14T21:38:34.661Z,17.30
2017-06-14T21:41:02.297Z,17.20
2017-06-14T21:43:29.857Z,17.00
2017-06-14T21:45:57.496Z,17.00
2017-06-14T21:48:25.130Z,16.90
2017-06-14T21:50:52.740Z,17.00
2017-06-14T21:53:20.357Z,17.10
2017-06-14T21:55:48.032Z,17.00
2017-06-14T21:58:15.622Z,16.90
2017-06-14T22:00:44.041Z,17.00
2017-06-14T22:03:12.533Z,17.00
2017-06-14T22:05:40.222Z,17.00
2017-06-14T22:08:07.857Z,16.80
2017-06-14T22:10:35.426Z,16.80
2017-06-14T22:13:03.162Z,16.70
2017-06-14T22:15:30.718Z,16.60
2017-06-14T22:17:58.396Z,16.60
2017-06-14T22:20:26.009Z,16.60
2017-06-14T22:22:53.628Z,16.70
2017-06-14T22:25:21.226Z,17.00
2017-06-14T22:27:48.969Z,17.10
2017-06-14T22:30:16.577Z,17.00
2017-06-14T22:32:44.883Z,17.10
2017-06-14T22:35:12.470Z,17.00
2017-06-14T22:37:40.072Z,16.90
2017-06-14T22:40:07.777Z,16.80
2017-06-14T22:42:35.308Z,16.70
2017-06-14T22:45:02.926Z,16.70
2017-06-14T22:47:30.583Z,16.70
2017-06-14T22:49:58.169Z,16.70
2017-06-14T22:52:25.760Z,16.50
2017-06-14T22:54:53.319Z,16.50
2017-06-14T22:57:20.904Z,16.30
2017-06-14T22:59:48.487Z,16.20
2017-06-14T23:02:16.060Z,16.20
2017-06-14T23:04:43.599Z,16.10
2017-06-14T23:07:11.207Z,16.00
2017-06-14T23:09:39.600Z,16.00
2017-06-14T23:12:07.267Z,16.10
2017-06-14T23:14:34.912Z,16.10
2017-06-14T23:17:02.455Z,16.00
2017-06-14T23:19:29.992Z,16.00
2017-06-14T23:21:57.652Z,16.00
2017-06-14T23:24:25.213Z,15.90
2017-06-14T23:26:52.760Z,15.80
2017-06-14T23:29:20.349Z,15.80
2017-06-14T23:31:47.909Z,15.70
2017-06-14T23:34:15.568Z,15.60
2017-06-14T23:36:43.148Z,15.60
2017-06-14T23:39:10.772Z,15.60
2017-06-14T23:41:38.334Z,15.60
2017-06-14T23:44:06.807Z,15.50
2017-06-14T23:46:34.417Z,15.50
2017-06-14T23:49:01.955Z,15.50
2017-06-14T23:51:29.682Z,15.40
2017-06-14T23:53:57.843Z,15.50
2017-06-14T23:56:26.300Z,15.50
2017-06-14T23:58:54.025Z,15.40
